Terminal Aerodrome Forecast
Issued by NWS Sterling, VA

Current Version | Previous Version | Graphics & Text | Print | Product List | Glossary On
Versions: 1 2 3 4 5 6 7 8 9 10 11 12 13 14 15 16 17 18 19 20 21 22 23 24 25 26 27 28 29
000
FTUS41 KLWX 062042 AAB
TAFDCA
TAF AMD
KDCA 062042Z 0621/0718 10012KT 5SM RA BKN050
     FM062200 11009KT P6SM BKN050
     FM070100 12004KT P6SM BKN050
     FM070900 05005KT P6SM BKN025
     FM071000 05005KT P6SM BKN090
     FM071400 VRB03KT P6SM SCT050=

USA.gov is the U.S. government's official web portal to all federal, state and local government web resources and services.